createdAt,value
2019-01-12T00:00:53.083Z,97284.00
2019-01-12T00:03:20.767Z,97288.00
2019-01-12T00:05:48.511Z,97290.00
2019-01-12T00:08:16.541Z,97290.00
2019-01-12T00:10:44.564Z,97292.00
2019-01-12T00:13:12.370Z,97282.00
2019-01-12T00:15:40.113Z,97284.00
2019-01-12T00:18:07.921Z,97299.00
2019-01-12T00:20:35.844Z,97288.00
2019-01-12T00:23:03.876Z,97296.00
2019-01-12T00:25:31.636Z,97289.00
2019-01-12T00:27:59.559Z,97300.00
2019-01-12T00:30:27.312Z,97288.00
2019-01-12T00:32:56.005Z,97282.00
2019-01-12T00:35:23.767Z,97288.00
2019-01-12T00:37:51.342Z,97291.00
2019-01-12T00:40:19.007Z,97288.00
2019-01-12T00:42:46.780Z,97303.00
2019-01-12T00:45:15.046Z,97285.00
2019-01-12T00:47:42.706Z,97298.00
2019-01-12T00:50:12.794Z,97292.00
2019-01-12T00:52:40.449Z,97298.00
2019-01-12T00:55:08.323Z,97288.00
2019-01-12T00:57:36.214Z,97291.00
2019-01-12T01:00:08.630Z,97301.00
2019-01-12T01:02:36.710Z,97300.00
2019-01-12T01:05:05.488Z,97304.00
2019-01-12T01:07:33.624Z,97309.00
2019-01-12T01:10:01.681Z,97313.00
2019-01-12T01:12:29.951Z,97309.00
2019-01-12T01:14:57.779Z,97311.00
2019-01-12T01:17:25.459Z,97314.00
2019-01-12T01:19:53.136Z,97332.00
2019-01-12T01:22:20.882Z,97322.00
2019-01-12T01:24:48.659Z,97326.00
2019-01-12T01:27:16.586Z,97327.00
2019-01-12T01:29:44.165Z,97333.00
2019-01-12T01:32:11.952Z,97326.00
2019-01-12T01:34:39.882Z,97330.00
2019-01-12T01:37:07.638Z,97333.00
2019-01-12T01:39:35.334Z,97319.00
2019-01-12T01:42:03.105Z,97332.00
2019-01-12T01:44:31.911Z,97330.00
2019-01-12T01:46:59.556Z,97337.00
2019-01-12T01:49:27.232Z,97324.00
2019-01-12T01:51:54.979Z,97328.00
2019-01-12T01:54:22.661Z,97330.00
2019-01-12T01:56:50.310Z,97336.00
2019-01-12T01:59:18.150Z,97329.00
2019-01-12T02:01:46.052Z,97326.00
2019-01-12T02:04:13.974Z,97333.00
2019-01-12T02:06:42.153Z,97333.00
2019-01-12T02:09:09.965Z,97333.00
2019-01-12T02:11:37.616Z,97331.00
2019-01-12T02:14:05.671Z,97338.00
2019-01-12T02:16:33.578Z,97338.00
2019-01-12T02:19:01.288Z,97333.00
2019-01-12T02:21:29.527Z,97347.00
2019-01-12T02:23:57.302Z,97334.00
2019-01-12T02:26:25.222Z,97339.00
2019-01-12T02:28:53.097Z,97343.00
2019-01-12T02:31:20.798Z,97338.00
2019-01-12T02:33:48.440Z,97336.00
2019-01-12T02:36:16.214Z,97335.00
2019-01-12T02:38:43.964Z,97332.00
2019-01-12T02:41:11.775Z,97341.00
2019-01-12T02:43:39.436Z,97356.00
2019-01-12T02:46:07.222Z,97352.00
2019-01-12T02:48:34.871Z,97356.00
2019-01-12T02:51:02.835Z,97344.00
2019-01-12T02:53:30.743Z,97347.00
2019-01-12T02:55:58.331Z,97347.00
2019-01-12T02:58:26.070Z,97347.00
2019-01-12T03:00:54.483Z,97343.00
2019-01-12T03:03:22.144Z,97345.00
2019-01-12T03:05:50.205Z,97337.00
2019-01-12T03:08:17.952Z,97340.00
2019-01-12T03:10:45.733Z,97337.00
2019-01-12T03:13:13.504Z,97336.00
2019-01-12T03:15:41.655Z,97331.00
2019-01-12T03:18:09.318Z,97334.00
2019-01-12T03:20:37.000Z,97352.00
2019-01-12T03:23:04.750Z,97329.00
2019-01-12T03:25:32.520Z,97329.00
2019-01-12T03:28:00.063Z,97326.00
2019-01-12T03:30:27.876Z,97329.00
2019-01-12T03:32:55.768Z,97338.00
2019-01-12T03:35:23.590Z,97332.00
2019-01-12T03:37:51.239Z,97332.00
2019-01-12T03:40:20.217Z,97344.00
2019-01-12T03:42:48.012Z,97336.00
2019-01-12T03:45:17.049Z,97335.00
2019-01-12T03:47:45.076Z,97345.00
2019-01-12T03:50:13.062Z,97340.00
2019-01-12T03:52:40.815Z,97335.00
2019-01-12T03:55:09.502Z,97321.00
2019-01-12T03:57:37.181Z,97330.00
2019-01-12T04:00:11.715Z,97316.00
2019-01-12T04:02:39.720Z,97333.00
2019-01-12T04:05:08.500Z,97317.00
2019-01-12T04:07:36.423Z,97317.00
2019-01-12T04:10:05.402Z,97323.00
2019-01-12T04:12:33.302Z,97320.00
2019-01-12T04:15:01.305Z,97315.00
2019-01-12T04:17:28.768Z,97320.00
2019-01-12T04:19:57.324Z,97328.00
2019-01-12T04:22:25.004Z,97311.00
2019-01-12T04:24:53.264Z,97318.00
2019-01-12T04:27:21.048Z,97319.00
2019-01-12T04:29:48.721Z,97316.00
2019-01-12T04:32:16.657Z,97323.00
2019-01-12T04:34:44.623Z,97317.00
2019-01-12T04:37:12.292Z,97321.00
2019-01-12T04:39:40.211Z,97322.00
2019-01-12T04:42:08.289Z,97320.00
2019-01-12T04:44:36.359Z,97325.00
2019-01-12T04:47:04.133Z,97335.00
2019-01-12T04:49:31.954Z,97327.00
2019-01-12T04:51:59.631Z,97324.00
2019-01-12T04:54:27.271Z,97325.00
2019-01-12T04:56:54.942Z,97335.00
2019-01-12T04:59:22.508Z,97324.00
2019-01-12T05:01:50.391Z,97322.00
2019-01-12T05:04:17.946Z,97327.00
2019-01-12T05:06:45.766Z,97322.00
2019-01-12T05:09:13.538Z,97329.00
2019-01-12T05:11:41.425Z,97329.00
2019-01-12T05:14:09.291Z,97321.00
2019-01-12T05:16:36.770Z,97332.00
2019-01-12T05:19:04.445Z,97337.00
2019-01-12T05:21:32.129Z,97330.00
2019-01-12T05:23:59.872Z,97334.00
2019-01-12T05:26:27.544Z,97329.00
2019-01-12T05:28:55.287Z,97332.00
2019-01-12T05:31:23.258Z,97332.00
2019-01-12T05:33:50.975Z,97330.00
2019-01-12T05:36:18.742Z,97327.00
2019-01-12T05:38:46.387Z,97329.00
2019-01-12T05:41:14.056Z,97333.00
2019-01-12T05:43:41.706Z,97329.00
2019-01-12T05:46:09.479Z,97344.00
2019-01-12T05:48:37.227Z,97335.00
2019-01-12T05:51:05.154Z,97334.00
2019-01-12T05:53:33.218Z,97337.00
2019-01-12T05:56:00.869Z,97321.00
2019-01-12T05:58:28.535Z,97328.00
2019-01-12T06:00:56.319Z,97327.00
2019-01-12T06:03:23.900Z,97330.00
2019-01-12T06:05:51.657Z,97339.00
2019-01-12T06:08:19.608Z,97333.00
2019-01-12T06:10:47.160Z,97329.00
2019-01-12T06:13:14.639Z,97343.00
2019-01-12T06:15:43.434Z,97325.00
2019-01-12T06:18:11.148Z,97326.00
2019-01-12T06:20:38.790Z,97336.00
2019-01-12T06:23:07.739Z,97330.00
2019-01-12T06:25:35.386Z,97347.00
2019-01-12T06:28:03.045Z,97329.00
2019-01-12T06:30:31.091Z,97339.00
2019-01-12T06:32:58.855Z,97331.00
2019-01-12T06:35:26.503Z,97337.00
2019-01-12T06:37:54.802Z,97334.00
2019-01-12T06:40:22.810Z,97331.00
2019-01-12T06:42:50.674Z,97331.00
2019-01-12T06:45:18.392Z,97329.00
2019-01-12T06:47:46.414Z,97332.00
2019-01-12T06:50:16.119Z,97336.00
2019-01-12T06:52:43.791Z,97334.00
2019-01-12T06:55:12.142Z,97331.00
2019-01-12T06:57:40.217Z,97347.00
2019-01-12T07:00:14.912Z,97341.00
2019-01-12T07:02:42.679Z,97339.00
2019-01-12T07:05:10.434Z,97344.00
2019-01-12T07:07:38.208Z,97341.00
2019-01-12T07:10:07.507Z,97342.00
2019-01-12T07:12:35.207Z,97337.00
2019-01-12T07:15:06.204Z,97337.00
2019-01-12T07:17:34.079Z,97341.00
2019-01-12T07:20:02.562Z,97345.00
2019-01-12T07:22:30.372Z,97340.00
2019-01-12T07:24:58.015Z,97338.00
2019-01-12T07:27:25.697Z,97337.00
2019-01-12T07:29:53.478Z,97336.00
2019-01-12T07:32:21.260Z,97332.00
2019-01-12T07:34:49.087Z,97333.00
2019-01-12T07:37:18.081Z,97345.00
2019-01-12T07:39:46.253Z,97334.00
2019-01-12T07:42:14.464Z,97346.00
2019-01-12T07:44:42.109Z,97334.00
2019-01-12T07:47:09.913Z,97332.00
2019-01-12T07:49:37.736Z,97340.00
2019-01-12T07:52:05.508Z,97345.00
2019-01-12T07:54:33.247Z,97343.00
2019-01-12T07:57:01.044Z,97347.00
2019-01-12T07:59:28.615Z,97341.00
2019-01-12T08:01:56.203Z,97337.00
2019-01-12T08:04:24.140Z,97338.00
2019-01-12T08:06:52.035Z,97342.00
2019-01-12T08:09:20.171Z,97346.00
2019-01-12T08:11:48.028Z,97342.00
2019-01-12T08:14:15.876Z,97344.00
2019-01-12T08:16:43.797Z,97344.00
2019-01-12T08:19:11.590Z,97344.00
2019-01-12T08:21:39.234Z,97353.00
2019-01-12T08:24:07.004Z,97346.00
2019-01-12T08:26:34.800Z,97346.00
2019-01-12T08:29:02.738Z,97345.00
2019-01-12T08:31:30.503Z,97351.00
2019-01-12T08:33:58.278Z,97340.00
2019-01-12T08:36:26.067Z,97342.00
2019-01-12T08:38:53.651Z,97338.00
2019-01-12T08:41:22.935Z,97336.00
2019-01-12T08:43:50.665Z,97333.00
2019-01-12T08:46:18.206Z,97336.00
2019-01-12T08:48:46.010Z,97337.00
2019-01-12T08:51:13.767Z,97333.00
2019-01-12T08:53:41.395Z,97327.00
2019-01-12T08:56:09.435Z,97330.00
2019-01-12T08:58:37.117Z,97324.00
2019-01-12T09:01:05.180Z,97314.00
2019-01-12T09:03:32.957Z,97315.00
2019-01-12T09:06:00.971Z,97318.00
2019-01-12T09:08:28.656Z,97312.00
2019-01-12T09:10:56.402Z,97316.00
2019-01-12T09:13:24.460Z,97323.00
2019-01-12T09:15:52.240Z,97314.00
2019-01-12T09:18:20.012Z,97321.00
2019-01-12T09:20:47.765Z,97313.00
2019-01-12T09:23:15.557Z,97306.00
2019-01-12T09:25:43.587Z,97313.00
2019-01-12T09:28:12.715Z,97300.00
2019-01-12T09:30:40.467Z,97307.00
2019-01-12T09:33:09.334Z,97293.00
2019-01-12T09:35:37.069Z,97302.00
2019-01-12T09:38:04.871Z,97297.00
2019-01-12T09:40:32.609Z,97295.00
2019-01-12T09:43:00.409Z,97288.00
2019-01-12T09:45:28.032Z,97285.00
2019-01-12T09:47:55.809Z,97281.00
2019-01-12T09:50:23.795Z,97290.00
2019-01-12T09:52:52.240Z,97284.00
2019-01-12T09:55:20.040Z,97288.00
2019-01-12T09:57:47.690Z,97286.00
2019-01-12T10:00:21.872Z,97282.00
2019-01-12T10:02:49.856Z,97292.00
2019-01-12T10:05:18.657Z,97279.00
2019-01-12T10:07:46.528Z,97285.00
2019-01-12T10:10:15.637Z,97283.00
2019-01-12T10:12:43.408Z,97284.00
2019-01-12T10:15:12.292Z,97269.00
2019-01-12T10:17:40.333Z,97261.00
2019-01-12T10:20:12.144Z,97261.00
2019-01-12T10:22:39.898Z,97243.00
2019-01-12T10:25:08.163Z,97242.00
2019-01-12T10:27:35.870Z,97240.00
2019-01-12T10:30:08.616Z,97232.00
2019-01-12T10:32:36.771Z,97222.00
2019-01-12T10:35:05.725Z,97213.00
2019-01-12T10:37:33.467Z,97221.00
2019-01-12T10:40:01.244Z,97217.00
2019-01-12T10:42:28.889Z,97216.00
2019-01-12T10:44:57.097Z,97202.00
2019-01-12T10:47:24.544Z,97202.00
2019-01-12T10:49:53.369Z,97196.00
2019-01-12T10:52:21.388Z,97189.00
2019-01-12T10:54:49.175Z,97181.00
2019-01-12T10:57:16.926Z,97190.00
2019-01-12T10:59:44.748Z,97181.00
2019-01-12T11:02:12.491Z,97180.00
2019-01-12T11:04:40.124Z,97186.00
2019-01-12T11:07:16.288Z,97173.00
2019-01-12T11:09:44.334Z,97171.00
2019-01-12T11:12:12.180Z,97174.00
2019-01-12T11:14:39.871Z,97173.00
2019-01-12T11:17:07.612Z,97160.00
2019-01-12T11:19:35.435Z,97168.00
2019-01-12T11:22:03.194Z,97159.00
2019-01-12T11:24:31.487Z,97155.00
2019-01-12T11:26:59.295Z,97160.00
2019-01-12T11:29:27.231Z,97149.00
2019-01-12T11:31:54.874Z,97144.00
2019-01-12T11:34:22.975Z,97063.00
2019-01-12T11:36:50.722Z,97159.00
2019-01-12T11:39:18.522Z,97136.00
2019-01-12T11:41:46.168Z,97141.00
2019-01-12T11:44:14.301Z,97142.00
2019-01-12T11:46:42.217Z,97128.00
2019-01-12T11:49:09.890Z,97132.00
2019-01-12T11:51:37.609Z,97119.00
2019-01-12T11:54:05.367Z,97120.00
2019-01-12T11:56:33.157Z,97114.00
2019-01-12T11:59:00.935Z,97121.00
2019-01-12T12:01:29.047Z,97102.00
2019-01-12T12:03:56.744Z,97098.00
2019-01-12T12:06:24.523Z,97078.00
2019-01-12T12:08:52.175Z,97070.00
2019-01-12T12:11:19.963Z,97067.00
2019-01-12T12:13:47.871Z,97057.00
2019-01-12T12:16:15.666Z,97058.00
2019-01-12T12:18:43.422Z,97064.00
2019-01-12T12:21:11.229Z,97077.00
2019-01-12T12:23:39.572Z,97059.00
2019-01-12T12:26:07.288Z,97058.00
2019-01-12T12:28:35.322Z,97059.00
2019-01-12T12:31:03.435Z,97060.00
2019-01-12T12:33:31.503Z,97055.00
2019-01-12T12:35:59.309Z,97069.00
2019-01-12T12:38:27.328Z,97056.00
2019-01-12T12:40:54.981Z,97054.00
2019-01-12T12:43:22.972Z,97048.00
2019-01-12T12:45:51.016Z,97042.00
2019-01-12T12:48:18.761Z,97041.00
2019-01-12T12:50:46.451Z,97040.00
2019-01-12T12:53:14.202Z,97030.00
2019-01-12T12:55:42.290Z,97023.00
2019-01-12T12:58:10.308Z,97019.00
2019-01-12T13:00:39.424Z,97015.00
2019-01-12T13:03:07.168Z,97009.00
2019-01-12T13:05:35.346Z,96999.00
2019-01-12T13:08:03.617Z,97004.00
2019-01-12T13:10:32.083Z,96998.00
2019-01-12T13:13:03.212Z,96996.00
2019-01-12T13:15:31.007Z,96999.00
2019-01-12T13:17:58.860Z,97003.00
2019-01-12T13:20:26.886Z,96985.00
2019-01-12T13:22:54.917Z,96997.00
2019-01-12T13:25:22.691Z,96985.00
2019-01-12T13:27:50.751Z,96974.00
2019-01-12T13:30:22.419Z,96963.00
2019-01-12T13:32:50.202Z,96975.00
2019-01-12T13:35:18.228Z,96950.00
2019-01-12T13:37:46.774Z,96955.00
2019-01-12T13:40:17.660Z,96944.00
2019-01-12T13:42:45.347Z,96935.00
2019-01-12T13:45:15.869Z,96942.00
2019-01-12T13:47:43.671Z,96936.00
2019-01-12T13:50:13.608Z,96924.00
2019-01-12T13:52:41.411Z,96941.00
2019-01-12T13:55:12.112Z,96932.00
2019-01-12T13:57:47.057Z,96924.00
2019-01-12T14:00:23.111Z,96924.00
2019-01-12T14:02:51.658Z,96924.00
2019-01-12T14:05:19.673Z,96909.00
2019-01-12T14:07:47.985Z,96904.00
2019-01-12T14:10:17.311Z,96907.00
2019-01-12T14:12:45.497Z,96901.00
2019-01-12T14:15:14.114Z,96889.00
2019-01-12T14:17:42.443Z,96881.00
2019-01-12T14:20:20.729Z,96882.00
2019-01-12T14:22:48.611Z,96878.00
2019-01-12T14:25:16.368Z,96871.00
2019-01-12T14:27:44.154Z,96869.00
2019-01-12T14:30:15.664Z,96876.00
2019-01-12T14:32:43.530Z,96877.00
2019-01-12T14:35:12.070Z,96873.00
2019-01-12T14:37:40.126Z,96869.00
2019-01-12T14:40:11.366Z,96857.00
2019-01-12T14:42:39.536Z,96858.00
2019-01-12T14:45:12.308Z,96846.00
2019-01-12T14:47:40.005Z,96839.00
2019-01-12T14:50:08.203Z,96847.00
2019-01-12T14:52:36.106Z,96840.00
2019-01-12T14:55:06.228Z,96832.00
2019-01-12T14:57:35.447Z,96827.00
2019-01-12T15:00:07.817Z,96837.00
2019-01-12T15:02:35.623Z,96826.00
2019-01-12T15:05:05.031Z,96824.00
2019-01-12T15:07:32.713Z,96823.00
2019-01-12T15:10:00.732Z,96827.00
2019-01-12T15:12:28.940Z,96819.00
2019-01-12T15:14:56.682Z,96814.00
2019-01-12T15:17:24.381Z,96809.00
2019-01-12T15:19:52.130Z,96803.00
2019-01-12T15:22:20.172Z,96805.00
2019-01-12T15:24:48.176Z,96806.00
2019-01-12T15:27:15.759Z,96808.00
2019-01-12T15:29:43.563Z,96805.00
2019-01-12T15:32:11.767Z,96800.00
2019-01-12T15:34:39.420Z,96791.00
2019-01-12T15:37:07.447Z,96784.00
2019-01-12T15:39:35.228Z,96774.00
2019-01-12T15:42:03.253Z,96778.00
2019-01-12T15:44:31.144Z,96767.00
2019-01-12T15:46:58.890Z,96768.00
2019-01-12T15:49:26.942Z,96751.00
2019-01-12T15:51:54.592Z,96752.00
2019-01-12T15:54:22.559Z,96748.00
2019-01-12T15:56:50.729Z,96739.00
2019-01-12T15:59:18.517Z,96735.00
2019-01-12T16:01:46.207Z,96742.00
2019-01-12T16:04:13.899Z,96735.00
2019-01-12T16:06:41.836Z,96726.00
2019-01-12T16:09:09.892Z,96725.00
2019-01-12T16:11:37.439Z,96722.00
2019-01-12T16:14:05.245Z,96724.00
2019-01-12T16:16:33.539Z,96723.00
2019-01-12T16:19:01.284Z,96728.00
2019-01-12T16:21:29.108Z,96715.00
2019-01-12T16:23:56.963Z,96708.00
2019-01-12T16:26:24.751Z,96703.00
2019-01-12T16:28:52.428Z,96707.00
2019-01-12T16:31:20.385Z,96701.00
2019-01-12T16:33:48.182Z,96702.00
2019-01-12T16:36:15.725Z,96707.00
2019-01-12T16:38:43.571Z,96698.00
2019-01-12T16:41:11.231Z,96687.00
2019-01-12T16:43:38.919Z,96685.00
2019-01-12T16:46:06.663Z,96680.00
2019-01-12T16:48:34.455Z,96679.00
2019-01-12T16:51:02.364Z,96675.00
2019-01-12T16:53:30.165Z,96667.00
2019-01-12T16:55:58.069Z,96675.00
2019-01-12T16:58:30.346Z,96668.00
2019-01-12T17:00:56.314Z,96664.00
2019-01-12T17:03:24.164Z,96655.00
2019-01-12T17:05:51.956Z,96667.00
2019-01-12T17:08:20.010Z,96672.00
2019-01-12T17:10:47.738Z,96663.00
2019-01-12T17:13:15.570Z,96663.00
2019-01-12T17:15:43.750Z,96654.00
2019-01-12T17:18:11.495Z,96640.00
2019-01-12T17:20:39.657Z,96649.00
2019-01-12T17:23:07.626Z,96626.00
2019-01-12T17:25:35.660Z,96624.00
2019-01-12T17:28:03.919Z,96623.00
2019-01-12T17:30:31.736Z,96627.00
2019-01-12T17:32:59.831Z,96624.00
2019-01-12T17:35:29.357Z,96619.00
2019-01-12T17:37:57.527Z,96625.00
2019-01-12T17:40:25.683Z,96628.00
2019-01-12T17:42:54.715Z,96617.00
2019-01-12T17:45:24.232Z,96615.00
2019-01-12T17:47:52.096Z,96618.00
2019-01-12T17:50:22.018Z,96616.00
2019-01-12T17:52:49.933Z,96605.00
2019-01-12T17:55:20.202Z,96630.00
2019-01-12T17:57:48.749Z,96602.00
2019-01-12T18:00:41.821Z,96602.00
2019-01-12T18:03:09.620Z,96599.00
2019-01-12T18:05:38.667Z,96605.00
2019-01-12T18:08:16.602Z,96606.00
2019-01-12T18:10:46.216Z,96606.00
2019-01-12T18:13:26.349Z,96597.00
2019-01-12T18:15:54.299Z,96610.00
2019-01-12T18:18:22.359Z,96601.00
2019-01-12T18:20:53.310Z,96593.00
2019-01-12T18:23:21.355Z,96601.00
2019-01-12T18:25:49.196Z,96591.00
2019-01-12T18:28:22.004Z,96569.00
2019-01-12T18:30:58.140Z,96586.00
2019-01-12T18:33:26.043Z,96580.00
2019-01-12T18:35:54.375Z,96571.00
2019-01-12T18:38:27.911Z,96573.00
2019-01-12T18:40:57.528Z,96564.00
2019-01-12T18:43:25.609Z,96568.00
2019-01-12T18:45:53.674Z,96560.00
2019-01-12T18:48:21.438Z,96551.00
2019-01-12T18:50:51.572Z,96548.00
2019-01-12T18:53:19.342Z,96562.00
2019-01-12T18:55:47.399Z,96572.00
2019-01-12T18:58:18.549Z,96557.00
2019-01-12T19:00:50.208Z,96564.00
2019-01-12T19:03:18.099Z,96560.00
2019-01-12T19:05:46.158Z,96568.00
2019-01-12T19:08:13.929Z,96563.00
2019-01-12T19:10:42.030Z,96558.00
2019-01-12T19:13:10.355Z,96560.00
2019-01-12T19:15:38.160Z,96560.00
2019-01-12T19:18:05.904Z,96547.00
2019-01-12T19:20:33.751Z,96547.00
2019-01-12T19:23:01.546Z,96568.00
2019-01-12T19:25:29.134Z,96568.00
2019-01-12T19:27:56.837Z,96555.00
2019-01-12T19:30:24.934Z,96565.00
2019-01-12T19:32:52.724Z,96560.00
2019-01-12T19:35:20.569Z,96566.00
2019-01-12T19:37:48.371Z,96550.00
2019-01-12T19:40:19.536Z,96551.00
2019-01-12T19:42:47.307Z,96556.00
2019-01-12T19:45:15.280Z,96549.00
2019-01-12T19:47:43.584Z,96546.00
2019-01-12T19:50:17.620Z,96549.00
2019-01-12T19:52:45.368Z,96546.00
2019-01-12T19:55:13.413Z,96542.00
2019-01-12T19:57:42.920Z,96550.00
2019-01-12T20:00:14.583Z,96539.00
2019-01-12T20:02:42.412Z,96549.00
2019-01-12T20:05:11.220Z,96536.00
2019-01-12T20:07:39.600Z,96526.00
2019-01-12T20:10:10.304Z,96542.00
2019-01-12T20:12:38.100Z,96522.00
2019-01-12T20:15:09.583Z,96539.00
2019-01-12T20:17:37.928Z,96526.00
2019-01-12T20:20:07.480Z,96525.00
2019-01-12T20:22:35.679Z,96510.00
2019-01-12T20:25:05.752Z,96506.00
2019-01-12T20:27:33.945Z,96503.00
2019-01-12T20:30:02.145Z,96507.00
2019-01-12T20:33:06.619Z,96500.00
2019-01-12T20:36:17.562Z,96495.00
2019-01-12T20:39:27.621Z,96485.00
2019-01-12T20:42:48.355Z,96493.00
2019-01-12T20:45:53.876Z,96472.00
2019-01-12T20:49:06.608Z,96469.00
2019-01-12T20:52:33.222Z,96480.00
2019-01-12T20:56:14.321Z,96485.00
2019-01-12T20:59:18.126Z,96483.00
2019-01-12T21:03:07.338Z,96473.00
2019-01-12T21:05:50.734Z,96465.00
2019-01-12T21:08:38.363Z,96454.00
2019-01-12T21:12:21.702Z,96458.00
2019-01-12T21:15:15.825Z,96466.00
2019-01-12T21:17:44.119Z,96463.00
2019-01-12T21:20:11.964Z,96460.00
2019-01-12T21:22:40.002Z,96451.00
2019-01-12T21:25:08.108Z,96448.00
2019-01-12T21:27:36.011Z,96458.00
2019-01-12T21:30:09.361Z,96444.00
2019-01-12T21:32:38.056Z,96448.00
2019-01-12T21:35:07.612Z,96460.00
2019-01-12T21:37:35.735Z,96451.00
2019-01-12T21:40:05.375Z,96448.00
2019-01-12T21:42:33.164Z,96456.00
2019-01-12T21:45:01.438Z,96439.00
2019-01-12T21:47:29.224Z,96440.00
2019-01-12T21:49:56.967Z,96438.00
2019-01-12T21:52:25.019Z,96437.00
2019-01-12T21:54:52.795Z,96426.00
2019-01-12T21:57:20.542Z,96429.00
2019-01-12T21:59:48.310Z,96431.00
2019-01-12T22:02:16.308Z,96424.00
2019-01-12T22:04:44.115Z,96430.00
2019-01-12T22:07:12.014Z,96415.00
2019-01-12T22:09:39.654Z,96416.00
2019-01-12T22:12:07.543Z,96415.00
2019-01-12T22:14:35.294Z,96413.00
2019-01-12T22:17:03.035Z,96409.00
2019-01-12T22:19:31.027Z,96422.00
2019-01-12T22:21:59.082Z,96402.00
2019-01-12T22:24:26.905Z,96401.00
2019-01-12T22:26:54.964Z,96402.00
2019-01-12T22:29:22.739Z,96406.00
2019-01-12T22:31:50.317Z,96403.00
2019-01-12T22:34:18.040Z,96417.00
2019-01-12T22:36:45.700Z,96422.00
2019-01-12T22:39:13.388Z,96413.00
2019-01-12T22:41:41.064Z,96418.00
2019-01-12T22:44:08.712Z,96418.00
2019-01-12T22:46:36.475Z,96408.00
2019-01-12T22:49:05.289Z,96415.00
2019-01-12T22:51:33.055Z,96424.00
2019-01-12T22:54:01.152Z,96416.00
2019-01-12T22:56:28.813Z,96411.00
2019-01-12T22:58:56.842Z,96428.00
2019-01-12T23:02:00.635Z,96418.00
2019-01-12T23:04:30.432Z,96413.00
2019-01-12T23:07:02.289Z,96415.00
2019-01-12T23:09:30.381Z,96407.00
2019-01-12T23:11:58.128Z,96421.00
2019-01-12T23:14:25.911Z,96420.00
2019-01-12T23:16:53.656Z,96416.00
2019-01-12T23:19:21.426Z,96425.00
2019-01-12T23:21:49.208Z,96415.00
2019-01-12T23:24:17.002Z,96430.00
2019-01-12T23:26:44.756Z,96431.00
2019-01-12T23:29:12.532Z,96437.00
2019-01-12T23:31:43.400Z,96427.00
2019-01-12T23:34:11.244Z,96424.00
2019-01-12T23:36:39.116Z,96422.00
2019-01-12T23:39:09.377Z,96421.00
2019-01-12T23:41:37.344Z,96429.00
2019-01-12T23:44:06.272Z,96413.00
2019-01-12T23:46:34.037Z,96407.00
2019-01-12T23:49:02.079Z,96402.00
2019-01-12T23:51:29.759Z,96400.00
2019-01-12T23:53:57.704Z,96394.00
2019-01-12T23:56:25.707Z,96401.00
2019-01-12T23:58:53.308Z,96384.00
